sensor_id;sensor_type;location;lat;lon;timestamp;pressure;altitude;pressure_sealevel;temperature;humidity
64078;BME280;51039;49.696;10.808;2023-07-22T00:01:33;98258.25;;;15.04;100.00
64078;BME280;51039;49.696;10.808;2023-07-22T00:03:58;98261.16;;;15.02;100.00
64078;BME280;51039;49.696;10.808;2023-07-22T00:06:24;98258.84;;;15.06;100.00
64078;BME280;51039;49.696;10.808;2023-07-22T00:08:49;98260.59;;;15.00;100.00
64078;BME280;51039;49.696;10.808;2023-07-22T00:11:15;98255.94;;;15.07;100.00
64078;BME280;51039;49.696;10.808;2023-07-22T00:13:40;98259.19;;;15.09;100.00
64078;BME280;51039;49.696;10.808;2023-07-22T00:16:06;98258.97;;;15.11;100.00
64078;BME280;51039;49.696;10.808;2023-07-22T00:18:33;98256.75;;;15.08;100.00
64078;BME280;51039;49.696;10.808;2023-07-22T00:20:58;98261.97;;;15.03;100.00
64078;BME280;51039;49.696;10.808;2023-07-22T00:23:24;98254.44;;;15.00;100.00
64078;BME280;51039;49.696;10.808;2023-07-22T00:25:49;98257.47;;;14.91;100.00
64078;BME280;51039;49.696;10.808;2023-07-22T00:28:15;98263.84;;;14.90;100.00
64078;BME280;51039;49.696;10.808;2023-07-22T00:30:41;98257.22;;;14.81;100.00
64078;BME280;51039;49.696;10.808;2023-07-22T00:33:07;98251.91;;;14.81;100.00
64078;BME280;51039;49.696;10.808;2023-07-22T00:35:33;98251.31;;;14.79;100.00
64078;BME280;51039;49.696;10.808;2023-07-22T00:37:58;98247.63;;;14.80;100.00
64078;BME280;51039;49.696;10.808;2023-07-22T00:40:25;98249.94;;;14.77;100.00
64078;BME280;51039;49.696;10.808;2023-07-22T00:42:50;98255.94;;;14.72;100.00
64078;BME280;51039;49.696;10.808;2023-07-22T00:45:16;98242.53;;;14.67;100.00
64078;BME280;51039;49.696;10.808;2023-07-22T00:47:41;98256.53;;;14.74;100.00
64078;BME280;51039;49.696;10.808;2023-07-22T00:50:08;98262.47;;;14.76;100.00
64078;BME280;51039;49.696;10.808;2023-07-22T00:52:34;98254.91;;;14.73;100.00
64078;BME280;51039;49.696;10.808;2023-07-22T00:54:59;98259.19;;;14.74;100.00
64078;BME280;51039;49.696;10.808;2023-07-22T00:57:25;98257.69;;;14.66;100.00
64078;BME280;51039;49.696;10.808;2023-07-22T00:59:51;98265.47;;;14.68;100.00
64078;BME280;51039;49.696;10.808;2023-07-22T01:02:17;98261.75;;;14.69;100.00
64078;BME280;51039;49.696;10.808;2023-07-22T01:04:43;98252.59;;;14.65;100.00
64078;BME280;51039;49.696;10.808;2023-07-22T01:07:08;98251.56;;;14.66;100.00
64078;BME280;51039;49.696;10.808;2023-07-22T01:09:38;98248.44;;;14.69;100.00
64078;BME280;51039;49.696;10.808;2023-07-22T01:12:05;98251.56;;;14.66;100.00
64078;BME280;51039;49.696;10.808;2023-07-22T01:14:34;98247.84;;;14.67;100.00
64078;BME280;51039;49.696;10.808;2023-07-22T01:17:03;98256.31;;;14.64;100.00
64078;BME280;51039;49.696;10.808;2023-07-22T01:19:30;98249.25;;;14.58;100.00
64078;BME280;51039;49.696;10.808;2023-07-22T01:22:00;98255.59;;;14.57;100.00
64078;BME280;51039;49.696;10.808;2023-07-22T01:24:30;98249.81;;;14.60;100.00
64078;BME280;51039;49.696;10.808;2023-07-22T01:26:56;98246.91;;;14.61;100.00
64078;BME280;51039;49.696;10.808;2023-07-22T01:29:22;98252.03;;;14.63;100.00
64078;BME280;51039;49.696;10.808;2023-07-22T01:31:49;98253.88;;;14.62;100.00
64078;BME280;51039;49.696;10.808;2023-07-22T01:34:19;98253.38;;;14.53;100.00
64078;BME280;51039;49.696;10.808;2023-07-22T01:36:45;98254.53;;;14.46;100.00
64078;BME280;51039;49.696;10.808;2023-07-22T01:39:15;98246.97;;;14.43;100.00
64078;BME280;51039;49.696;10.808;2023-07-22T01:41:41;98241.78;;;14.48;100.00
64078;BME280;51039;49.696;10.808;2023-07-22T01:44:07;98238.91;;;14.49;100.00
64078;BME280;51039;49.696;10.808;2023-07-22T01:46:33;98235.53;;;14.42;100.00
64078;BME280;51039;49.696;10.808;2023-07-22T01:48:58;98249.06;;;14.41;100.00
64078;BME280;51039;49.696;10.808;2023-07-22T01:51:24;98243.97;;;14.39;100.00
64078;BME280;51039;49.696;10.808;2023-07-22T01:53:50;98249.88;;;14.41;100.00
64078;BME280;51039;49.696;10.808;2023-07-22T01:56:16;98249.44;;;14.44;100.00
64078;BME280;51039;49.696;10.808;2023-07-22T01:58:41;98254.19;;;14.42;100.00
64078;BME280;51039;49.696;10.808;2023-07-22T02:01:07;98252.53;;;14.41;100.00
64078;BME280;51039;49.696;10.808;2023-07-22T02:03:32;98248.13;;;14.35;100.00
64078;BME280;51039;49.696;10.808;2023-07-22T02:06:04;98255.19;;;14.29;100.00
64078;BME280;51039;49.696;10.808;2023-07-22T02:08:30;98261.56;;;14.28;100.00
64078;BME280;51039;49.696;10.808;2023-07-22T02:10:59;98256.47;;;14.27;100.00
64078;BME280;51039;49.696;10.808;2023-07-22T02:13:26;98260.16;;;14.26;100.00
64078;BME280;51039;49.696;10.808;2023-07-22T02:15:53;98268.28;;;14.31;100.00
64078;BME280;51039;49.696;10.808;2023-07-22T02:18:19;98268.88;;;14.33;100.00
64078;BME280;51039;49.696;10.808;2023-07-22T02:20:44;98265.97;;;14.34;100.00
64078;BME280;51039;49.696;10.808;2023-07-22T02:23:09;98270.50;;;14.34;100.00
64078;BME280;51039;49.696;10.808;2023-07-22T02:25:35;98274.69;;;14.30;100.00
64078;BME280;51039;49.696;10.808;2023-07-22T02:28:02;98270.81;;;14.26;100.00
64078;BME280;51039;49.696;10.808;2023-07-22T02:30:27;98259.13;;;14.27;100.00
64078;BME280;51039;49.696;10.808;2023-07-22T02:32:53;98269.22;;;14.25;100.00
64078;BME280;51039;49.696;10.808;2023-07-22T02:35:18;98269.88;;;14.20;100.00
64078;BME280;51039;49.696;10.808;2023-07-22T02:37:43;98271.06;;;14.24;100.00
64078;BME280;51039;49.696;10.808;2023-07-22T02:40:09;98259.56;;;14.24;100.00
64078;BME280;51039;49.696;10.808;2023-07-22T02:42:38;98261.00;;;14.26;100.00
64078;BME280;51039;49.696;10.808;2023-07-22T02:45:04;98261.81;;;14.27;100.00
64078;BME280;51039;49.696;10.808;2023-07-22T02:47:32;98258.06;;;14.16;100.00
64078;BME280;51039;49.696;10.808;2023-07-22T02:49:58;98263.38;;;14.16;100.00
64078;BME280;51039;49.696;10.808;2023-07-22T02:52:23;98259.91;;;14.16;100.00
64078;BME280;51039;49.696;10.808;2023-07-22T02:55:04;98264.81;;;14.19;100.00
64078;BME280;51039;49.696;10.808;2023-07-22T02:57:30;98268.03;;;14.21;100.00
64078;BME280;51039;49.696;10.808;2023-07-22T02:59:56;98270.81;;;14.26;100.00
64078;BME280;51039;49.696;10.808;2023-07-22T03:02:21;98272.69;;;14.25;100.00
64078;BME280;51039;49.696;10.808;2023-07-22T03:04:46;98280.44;;;14.27;100.00
64078;BME280;51039;49.696;10.808;2023-07-22T03:07:12;98280.91;;;14.24;100.00
64078;BME280;51039;49.696;10.808;2023-07-22T03:09:37;98285.19;;;14.25;100.00
64078;BME280;51039;49.696;10.808;2023-07-22T03:12:03;98285.28;;;14.18;100.00
64078;BME280;51039;49.696;10.808;2023-07-22T03:14:28;98285.06;;;14.20;100.00
64078;BME280;51039;49.696;10.808;2023-07-22T03:16:54;98286.81;;;14.26;100.00
64078;BME280;51039;49.696;10.808;2023-07-22T03:19:19;98292.03;;;14.21;100.00
64078;BME280;51039;49.696;10.808;2023-07-22T03:21:44;98295.28;;;14.23;100.00
64078;BME280;51039;49.696;10.808;2023-07-22T03:24:10;98292.38;;;14.24;100.00
64078;BME280;51039;49.696;10.808;2023-07-22T03:26:35;98287.63;;;14.26;100.00
64078;BME280;51039;49.696;10.808;2023-07-22T03:29:00;98294.34;;;14.29;100.00
64078;BME280;51039;49.696;10.808;2023-07-22T03:31:26;98289.59;;;14.31;100.00
64078;BME280;51039;49.696;10.808;2023-07-22T03:33:51;98298.50;;;14.25;100.00
64078;BME280;51039;49.696;10.808;2023-07-22T03:36:17;98301.31;;;14.30;100.00
64078;BME280;51039;49.696;10.808;2023-07-22T03:38:42;98305.34;;;14.21;100.00
64078;BME280;51039;49.696;10.808;2023-07-22T03:41:08;98297.56;;;14.19;100.00
64078;BME280;51039;49.696;10.808;2023-07-22T03:43:33;98305.94;;;14.23;100.00
64078;BME280;51039;49.696;10.808;2023-07-22T03:45:58;98301.50;;;14.17;100.00
64078;BME280;51039;49.696;10.808;2023-07-22T03:48:24;98301.94;;;14.13;100.00
64078;BME280;51039;49.696;10.808;2023-07-22T03:50:49;98304.28;;;14.22;100.00
64078;BME280;51039;49.696;10.808;2023-07-22T03:53:15;98307.53;;;14.24;100.00
64078;BME280;51039;49.696;10.808;2023-07-22T03:55:40;98292.13;;;14.26;100.00
64078;BME280;51039;49.696;10.808;2023-07-22T03:58:06;98297.16;;;14.34;100.00
64078;BME280;51039;49.696;10.808;2023-07-22T04:00:31;98297.59;;;14.31;100.00
64078;BME280;51039;49.696;10.808;2023-07-22T04:02:56;98298.66;;;14.30;100.00
64078;BME280;51039;49.696;10.808;2023-07-22T04:05:22;98293.44;;;14.35;100.00
64078;BME280;51039;49.696;10.808;2023-07-22T04:07:47;98299.47;;;14.42;100.00
64078;BME280;51039;49.696;10.808;2023-07-22T04:10:13;98296.84;;;14.54;100.00
64078;BME280;51039;49.696;10.808;2023-07-22T04:12:38;98302.53;;;14.58;100.00
64078;BME280;51039;49.696;10.808;2023-07-22T04:15:03;98302.09;;;14.61;100.00
64078;BME280;51039;49.696;10.808;2023-07-22T04:17:29;98299.53;;;14.66;100.00
64078;BME280;51039;49.696;10.808;2023-07-22T04:19:54;98296.06;;;14.77;100.00
64078;BME280;51039;49.696;10.808;2023-07-22T04:22:20;98300.47;;;14.83;100.00
64078;BME280;51039;49.696;10.808;2023-07-22T04:24:46;98309.06;;;14.85;100.00
64078;BME280;51039;49.696;10.808;2023-07-22T04:27:13;98304.28;;;14.87;100.00
64078;BME280;51039;49.696;10.808;2023-07-22T04:29:39;98299.22;;;14.98;100.00
64078;BME280;51039;49.696;10.808;2023-07-22T04:32:04;98305.09;;;15.11;100.00
64078;BME280;51039;49.696;10.808;2023-07-22T04:34:30;98310.56;;;15.17;100.00
64078;BME280;51039;49.696;10.808;2023-07-22T04:36:56;98308.47;;;15.19;100.00
64078;BME280;51039;49.696;10.808;2023-07-22T04:39:22;98313.69;;;15.25;100.00
64078;BME280;51039;49.696;10.808;2023-07-22T04:41:48;98318.41;;;15.35;100.00
64078;BME280;51039;49.696;10.808;2023-07-22T04:44:13;98326.53;;;15.40;100.00
64078;BME280;51039;49.696;10.808;2023-07-22T04:46:39;98333.25;;;15.43;100.00
64078;BME280;51039;49.696;10.808;2023-07-22T04:49:05;98336.16;;;15.41;100.00
64078;BME280;51039;49.696;10.808;2023-07-22T04:51:31;98331.06;;;15.40;100.00
64078;BME280;51039;49.696;10.808;2023-07-22T04:53:57;98339.06;;;15.51;100.00
64078;BME280;51039;49.696;10.808;2023-07-22T04:56:22;98343.91;;;15.78;100.00
64078;BME280;51039;49.696;10.808;2023-07-22T04:58:47;98336.22;;;16.10;100.00
64078;BME280;51039;49.696;10.808;2023-07-22T05:01:14;98337.19;;;17.57;93.45
64078;BME280;51039;49.696;10.808;2023-07-22T05:03:40;98331.47;;;19.64;81.40
64078;BME280;51039;49.696;10.808;2023-07-22T05:06:05;98329.31;;;20.86;73.67
64078;BME280;51039;49.696;10.808;2023-07-22T05:08:31;98334.03;;;19.96;77.70
64078;BME280;51039;49.696;10.808;2023-07-22T05:10:56;98338.19;;;19.14;80.08
64078;BME280;51039;49.696;10.808;2023-07-22T05:13:21;98339.94;;;18.33;84.20
64078;BME280;51039;49.696;10.808;2023-07-22T05:15:47;98348.84;;;17.67;88.84
64078;BME280;51039;49.696;10.808;2023-07-22T05:18:12;98347.56;;;17.53;90.20
64078;BME280;51039;49.696;10.808;2023-07-22T05:20:38;98349.66;;;17.68;89.54
64078;BME280;51039;49.696;10.808;2023-07-22T05:23:04;98357.50;;;17.75;89.46
64078;BME280;51039;49.696;10.808;2023-07-22T05:25:29;98362.97;;;17.24;91.85
64078;BME280;51039;49.696;10.808;2023-07-22T05:27:55;98354.38;;;17.61;91.20
64078;BME280;51039;49.696;10.808;2023-07-22T05:30:20;98352.72;;;17.77;89.88
64078;BME280;51039;49.696;10.808;2023-07-22T05:32:46;98351.16;;;17.81;88.20
64078;BME280;51039;49.696;10.808;2023-07-22T05:35:11;98358.91;;;17.38;89.93
64078;BME280;51039;49.696;10.808;2023-07-22T05:37:36;98354.34;;;17.00;92.43
64078;BME280;51039;49.696;10.808;2023-07-22T05:40:02;98370.59;;;16.81;92.35
64078;BME280;51039;49.696;10.808;2023-07-22T05:42:27;98365.63;;;16.56;94.49
64078;BME280;51039;49.696;10.808;2023-07-22T05:44:57;98361.75;;;16.64;93.88
64078;BME280;51039;49.696;10.808;2023-07-22T05:47:22;98365.81;;;16.66;95.26
64078;BME280;51039;49.696;10.808;2023-07-22T05:49:48;98368.75;;;16.65;94.60
64078;BME280;51039;49.696;10.808;2023-07-22T05:52:13;98373.81;;;16.49;94.94
64078;BME280;51039;49.696;10.808;2023-07-22T05:54:39;98377.38;;;16.38;95.72
64078;BME280;51039;49.696;10.808;2023-07-22T05:57:04;98381.13;;;16.25;97.55
64078;BME280;51039;49.696;10.808;2023-07-22T05:59:30;98377.88;;;16.23;97.78
64078;BME280;51039;49.696;10.808;2023-07-22T06:01:56;98386.94;;;16.22;98.84
64078;BME280;51039;49.696;10.808;2023-07-22T06:04:21;98391.19;;;16.35;97.97
64078;BME280;51039;49.696;10.808;2023-07-22T06:06:47;98398.25;;;16.41;97.91
64078;BME280;51039;49.696;10.808;2023-07-22T06:09:12;98401.91;;;16.35;98.25
64078;BME280;51039;49.696;10.808;2023-07-22T06:11:37;98398.25;;;16.24;98.84
64078;BME280;51039;49.696;10.808;2023-07-22T06:14:02;98404.28;;;16.20;99.32
64078;BME280;51039;49.696;10.808;2023-07-22T06:16:28;98398.34;;;16.18;99.03
64078;BME280;51039;49.696;10.808;2023-07-22T06:18:53;98406.84;;;16.15;99.85
64078;BME280;51039;49.696;10.808;2023-07-22T06:21:18;98408.09;;;16.24;99.72
64078;BME280;51039;49.696;10.808;2023-07-22T06:23:44;98402.75;;;16.24;98.65
64078;BME280;51039;49.696;10.808;2023-07-22T06:26:09;98405.75;;;16.27;97.88
64078;BME280;51039;49.696;10.808;2023-07-22T06:28:34;98411.56;;;16.36;97.46
64078;BME280;51039;49.696;10.808;2023-07-22T06:31:00;98405.69;;;16.68;95.32
64078;BME280;51039;49.696;10.808;2023-07-22T06:33:25;98406.56;;;17.02;92.43
64078;BME280;51039;49.696;10.808;2023-07-22T06:35:50;98409.88;;;17.10;90.85
64078;BME280;51039;49.696;10.808;2023-07-22T06:38:16;98408.81;;;17.27;90.34
64078;BME280;51039;49.696;10.808;2023-07-22T06:40:41;98413.47;;;17.54;88.94
64078;BME280;51039;49.696;10.808;2023-07-22T06:43:06;98416.03;;;17.44;89.36
64078;BME280;51039;49.696;10.808;2023-07-22T06:45:32;98420.16;;;17.52;86.94
64078;BME280;51039;49.696;10.808;2023-07-22T06:47:58;98417.50;;;17.74;87.20
64078;BME280;51039;49.696;10.808;2023-07-22T06:50:23;98414.09;;;17.78;85.76
64078;BME280;51039;49.696;10.808;2023-07-22T06:52:49;98409.97;;;17.71;85.19
64078;BME280;51039;49.696;10.808;2023-07-22T06:55:14;98406.78;;;17.74;85.97
64078;BME280;51039;49.696;10.808;2023-07-22T06:57:39;98409.75;;;17.55;85.31
64078;BME280;51039;49.696;10.808;2023-07-22T07:00:05;98410.25;;;17.52;85.11
64078;BME280;51039;49.696;10.808;2023-07-22T07:02:31;98413.47;;;17.54;83.88
64078;BME280;51039;49.696;10.808;2023-07-22T07:04:56;98411.13;;;17.58;84.00
64078;BME280;51039;49.696;10.808;2023-07-22T07:07:22;98419.44;;;17.78;83.81
64078;BME280;51039;49.696;10.808;2023-07-22T07:09:47;98422.31;;;17.55;83.03
64078;BME280;51039;49.696;10.808;2023-07-22T07:12:12;98427.34;;;17.51;83.62
64078;BME280;51039;49.696;10.808;2023-07-22T07:14:37;98426.13;;;17.59;83.74
64078;BME280;51039;49.696;10.808;2023-07-22T07:17:03;98423.31;;;17.88;82.30
64078;BME280;51039;49.696;10.808;2023-07-22T07:19:28;98427.28;;;18.02;81.68
64078;BME280;51039;49.696;10.808;2023-07-22T07:21:54;98428.31;;;18.23;81.56
64078;BME280;51039;49.696;10.808;2023-07-22T07:24:19;98424.25;;;18.20;80.94
64078;BME280;51039;49.696;10.808;2023-07-22T07:26:45;98430.63;;;18.36;80.29
64078;BME280;51039;49.696;10.808;2023-07-22T07:29:10;98432.19;;;18.10;80.32
64078;BME280;51039;49.696;10.808;2023-07-22T07:31:36;98432.53;;;17.75;81.52
64078;BME280;51039;49.696;10.808;2023-07-22T07:34:02;98439.25;;;17.21;84.18
64078;BME280;51039;49.696;10.808;2023-07-22T07:36:27;98438.69;;;17.36;83.30
64078;BME280;51039;49.696;10.808;2023-07-22T07:38:53;98435.81;;;17.43;84.16
64078;BME280;51039;49.696;10.808;2023-07-22T07:41:18;98431.81;;;17.45;83.72
64078;BME280;51039;49.696;10.808;2023-07-22T07:43:43;98434.78;;;17.44;82.30
64078;BME280;51039;49.696;10.808;2023-07-22T07:48:44;98435.91;;;17.31;84.58
64078;BME280;51039;49.696;10.808;2023-07-22T07:51:11;98437.84;;;17.36;85.00
64078;BME280;51039;49.696;10.808;2023-07-22T07:53:37;98451.63;;;17.44;85.00
64078;BME280;51039;49.696;10.808;2023-07-22T07:56:03;98449.84;;;17.50;84.45
64078;BME280;51039;49.696;10.808;2023-07-22T07:58:28;98440.69;;;17.29;87.12
64078;BME280;51039;49.696;10.808;2023-07-22T08:00:54;98442.72;;;17.39;84.73
64078;BME280;51039;49.696;10.808;2023-07-22T08:03:19;98450.84;;;17.44;84.98
64078;BME280;51039;49.696;10.808;2023-07-22T08:05:45;98445.47;;;17.44;85.43
64078;BME280;51039;49.696;10.808;2023-07-22T08:08:11;98441.69;;;17.40;85.72
64078;BME280;51039;49.696;10.808;2023-07-22T08:10:36;98442.06;;;17.32;86.77
64078;BME280;51039;49.696;10.808;2023-07-22T08:13:01;98441.16;;;17.26;88.86
64078;BME280;51039;49.696;10.808;2023-07-22T08:15:27;98443.63;;;17.27;89.03
64078;BME280;51039;49.696;10.808;2023-07-22T08:17:53;98457.81;;;17.45;90.04
64078;BME280;51039;49.696;10.808;2023-07-22T08:20:18;98453.75;;;17.59;89.37
64078;BME280;51039;49.696;10.808;2023-07-22T08:22:44;98458.09;;;17.65;87.32
64078;BME280;51039;49.696;10.808;2023-07-22T08:25:09;98456.34;;;17.54;86.54
64078;BME280;51039;49.696;10.808;2023-07-22T08:27:34;98456.19;;;17.44;88.43
64078;BME280;51039;49.696;10.808;2023-07-22T08:30:00;98445.97;;;17.41;88.39
64078;BME280;51039;49.696;10.808;2023-07-22T08:32:25;98457.16;;;17.38;87.34
64078;BME280;51039;49.696;10.808;2023-07-22T08:34:50;98455.00;;;17.74;85.56
64078;BME280;51039;49.696;10.808;2023-07-22T08:37:16;98453.16;;;18.13;85.08
64078;BME280;51039;49.696;10.808;2023-07-22T08:39:41;98454.63;;;18.26;82.05
64078;BME280;51039;49.696;10.808;2023-07-22T08:42:07;98456.25;;;18.27;82.42
64078;BME280;51039;49.696;10.808;2023-07-22T08:44:33;98451.44;;;18.78;80.12
64078;BME280;51039;49.696;10.808;2023-07-22T08:47:04;98446.41;;;19.14;75.95
64078;BME280;51039;49.696;10.808;2023-07-22T08:49:35;98448.34;;;19.61;75.20
64078;BME280;51039;49.696;10.808;2023-07-22T08:52:00;98446.41;;;19.99;71.11
64078;BME280;51039;49.696;10.808;2023-07-22T08:54:26;98455.88;;;21.42;64.55
64078;BME280;51039;49.696;10.808;2023-07-22T08:56:53;98455.41;;;22.81;60.32
64078;BME280;51039;49.696;10.808;2023-07-22T08:59:18;98456.47;;;23.78;56.31
64078;BME280;51039;49.696;10.808;2023-07-22T09:01:45;98450.13;;;22.60;55.45
64078;BME280;51039;49.696;10.808;2023-07-22T09:04:13;98452.06;;;22.49;58.04
64078;BME280;51039;49.696;10.808;2023-07-22T09:06:38;98445.13;;;24.67;55.14
64078;BME280;51039;49.696;10.808;2023-07-22T09:09:04;98436.84;;;24.77;51.13
64078;BME280;51039;49.696;10.808;2023-07-22T09:11:33;98439.38;;;23.58;54.90
64078;BME280;51039;49.696;10.808;2023-07-22T09:13:59;98444.84;;;23.19;55.12
64078;BME280;51039;49.696;10.808;2023-07-22T09:16:27;98444.63;;;22.26;56.03
64078;BME280;51039;49.696;10.808;2023-07-22T09:18:55;98443.16;;;21.68;58.77
64078;BME280;51039;49.696;10.808;2023-07-22T09:21:22;98442.94;;;21.49;59.32
64078;BME280;51039;49.696;10.808;2023-07-22T09:23:47;98448.03;;;21.30;60.19
64078;BME280;51039;49.696;10.808;2023-07-22T09:26:13;98437.00;;;21.37;60.48
64078;BME280;51039;49.696;10.808;2023-07-22T09:28:49;98438.56;;;21.79;61.00
64078;BME280;51039;49.696;10.808;2023-07-22T09:31:22;98438.22;;;22.61;58.96
64078;BME280;51039;49.696;10.808;2023-07-22T09:33:49;98439.34;;;22.55;58.24
64078;BME280;51039;49.696;10.808;2023-07-22T09:36:15;98433.06;;;22.65;57.71
64078;BME280;51039;49.696;10.808;2023-07-22T09:38:41;98433.94;;;23.87;53.56
64078;BME280;51039;49.696;10.808;2023-07-22T09:41:06;98427.47;;;24.07;50.35
64078;BME280;51039;49.696;10.808;2023-07-22T09:43:35;98433.16;;;23.58;52.49
64078;BME280;51039;49.696;10.808;2023-07-22T09:46:06;98434.16;;;24.34;51.51
64078;BME280;51039;49.696;10.808;2023-07-22T09:48:40;98422.13;;;24.64;51.35
64078;BME280;51039;49.696;10.808;2023-07-22T09:51:11;98433.28;;;23.96;51.47
64078;BME280;51039;49.696;10.808;2023-07-22T09:53:38;98434.94;;;24.97;48.56
64078;BME280;51039;49.696;10.808;2023-07-22T09:56:09;98428.09;;;24.99;48.53
64078;BME280;51039;49.696;10.808;2023-07-22T09:58:34;98429.84;;;24.14;50.52
64078;BME280;51039;49.696;10.808;2023-07-22T10:01:01;98425.81;;;24.12;47.33
64078;BME280;51039;49.696;10.808;2023-07-22T10:03:28;98430.13;;;23.35;53.28
64078;BME280;51039;49.696;10.808;2023-07-22T10:05:58;98427.47;;;24.50;49.09
64078;BME280;51039;49.696;10.808;2023-07-22T10:08:25;98420.41;;;23.87;51.99
64078;BME280;51039;49.696;10.808;2023-07-22T10:10:55;98416.22;;;25.14;45.99
64078;BME280;51039;49.696;10.808;2023-07-22T10:13:22;98417.06;;;23.96;50.54
64078;BME280;51039;49.696;10.808;2023-07-22T10:15:49;98415.09;;;25.48;45.51
64078;BME280;51039;49.696;10.808;2023-07-22T10:18:15;98408.16;;;25.56;46.97
64078;BME280;51039;49.696;10.808;2023-07-22T10:20:42;98405.09;;;26.54;43.74
64078;BME280;51039;49.696;10.808;2023-07-22T10:23:09;98404.13;;;24.74;46.70
64078;BME280;51039;49.696;10.808;2023-07-22T10:25:36;98392.81;;;24.53;46.83
64078;BME280;51039;49.696;10.808;2023-07-22T10:28:02;98402.13;;;22.52;50.84
64078;BME280;51039;49.696;10.808;2023-07-22T10:30:28;98397.06;;;21.75;54.59
64078;BME280;51039;49.696;10.808;2023-07-22T10:32:53;98387.66;;;23.89;49.69
64078;BME280;51039;49.696;10.808;2023-07-22T10:35:23;98387.28;;;25.98;43.75
64078;BME280;51039;49.696;10.808;2023-07-22T10:40:44;98378.75;;;29.07;36.96
64078;BME280;51039;49.696;10.808;2023-07-22T10:43:26;98385.81;;;29.17;34.66
64078;BME280;51039;49.696;10.808;2023-07-22T10:45:55;98378.94;;;28.32;36.42
64078;BME280;51039;49.696;10.808;2023-07-22T10:48:23;98364.38;;;28.89;35.76
64078;BME280;51039;49.696;10.808;2023-07-22T10:50:53;98367.72;;;29.12;34.51
64078;BME280;51039;49.696;10.808;2023-07-22T11:01:21;98357.81;;;28.55;38.66
64078;BME280;51039;49.696;10.808;2023-07-22T11:14:27;98344.72;;;26.80;40.73
64078;BME280;51039;49.696;10.808;2023-07-22T11:16:56;98343.38;;;25.82;39.56
64078;BME280;51039;49.696;10.808;2023-07-22T11:19:23;98331.41;;;26.70;38.47
64078;BME280;51039;49.696;10.808;2023-07-22T11:21:50;98337.00;;;26.96;38.65
64078;BME280;51039;49.696;10.808;2023-07-22T11:24:16;98337.56;;;26.61;37.64
64078;BME280;51039;49.696;10.808;2023-07-22T11:26:43;98332.44;;;26.82;39.07
64078;BME280;51039;49.696;10.808;2023-07-22T11:29:10;98331.56;;;26.73;39.90
64078;BME280;51039;49.696;10.808;2023-07-22T11:31:37;98323.13;;;26.75;38.23
64078;BME280;51039;49.696;10.808;2023-07-22T11:34:07;98318.88;;;25.45;39.81
64078;BME280;51039;49.696;10.808;2023-07-22T11:36:43;98316.16;;;25.32;40.56
64078;BME280;51039;49.696;10.808;2023-07-22T11:39:10;98319.50;;;24.96;41.64
64078;BME280;51039;49.696;10.808;2023-07-22T11:41:40;98308.53;;;25.47;41.71
64078;BME280;51039;49.696;10.808;2023-07-22T11:44:10;98315.94;;;25.83;41.12
64078;BME280;51039;49.696;10.808;2023-07-22T11:46:53;98313.38;;;25.51;40.68
64078;BME280;51039;49.696;10.808;2023-07-22T11:49:32;98310.69;;;24.71;44.04
64078;BME280;51039;49.696;10.808;2023-07-22T11:52:00;98302.38;;;25.00;44.03
64078;BME280;51039;49.696;10.808;2023-07-22T11:54:38;98299.31;;;25.02;42.76
64078;BME280;51039;49.696;10.808;2023-07-22T11:57:16;98303.13;;;25.34;43.78
64078;BME280;51039;49.696;10.808;2023-07-22T11:59:53;98289.75;;;24.77;43.64
64078;BME280;51039;49.696;10.808;2023-07-22T12:02:21;98293.84;;;24.03;44.47
64078;BME280;51039;49.696;10.808;2023-07-22T12:04:51;98289.81;;;24.39;43.87
64078;BME280;51039;49.696;10.808;2023-07-22T12:07:26;98294.06;;;24.64;43.67
64078;BME280;51039;49.696;10.808;2023-07-22T12:09:52;98298.88;;;24.48;45.05
64078;BME280;51039;49.696;10.808;2023-07-22T12:12:19;98297.59;;;24.78;44.25
64078;BME280;51039;49.696;10.808;2023-07-22T12:14:44;98291.09;;;24.93;45.50
64078;BME280;51039;49.696;10.808;2023-07-22T12:17:10;98273.41;;;25.79;42.38
64078;BME280;51039;49.696;10.808;2023-07-22T12:19:35;98268.94;;;26.11;41.51
64078;BME280;51039;49.696;10.808;2023-07-22T12:22:01;98270.03;;;26.23;39.96
64078;BME280;51039;49.696;10.808;2023-07-22T12:24:27;98266.06;;;26.30;40.12
64078;BME280;51039;49.696;10.808;2023-07-22T12:26:53;98268.22;;;26.19;41.86
64078;BME280;51039;49.696;10.808;2023-07-22T12:29:18;98257.28;;;25.18;41.02
64078;BME280;51039;49.696;10.808;2023-07-22T12:31:43;98265.09;;;24.78;42.06
64078;BME280;51039;49.696;10.808;2023-07-22T12:34:09;98260.66;;;24.49;43.24
64078;BME280;51039;49.696;10.808;2023-07-22T12:36:35;98249.88;;;24.30;44.12
64078;BME280;51039;49.696;10.808;2023-07-22T12:39:00;98241.75;;;24.30;43.78
64078;BME280;51039;49.696;10.808;2023-07-22T12:41:25;98248.88;;;24.07;43.96
64078;BME280;51039;49.696;10.808;2023-07-22T12:43:50;98238.09;;;23.88;44.67
64078;BME280;51039;49.696;10.808;2023-07-22T12:46:16;98243.28;;;23.61;45.11
64078;BME280;51039;49.696;10.808;2023-07-22T12:48:42;98248.75;;;23.56;45.54
64078;BME280;51039;49.696;10.808;2023-07-22T12:51:07;98247.38;;;22.86;47.22
64078;BME280;51039;49.696;10.808;2023-07-22T12:53:34;98247.84;;;23.22;46.77
64078;BME280;51039;49.696;10.808;2023-07-22T12:55:59;98250.97;;;23.72;45.84
64078;BME280;51039;49.696;10.808;2023-07-22T12:58:27;98238.69;;;24.70;45.15
64078;BME280;51039;49.696;10.808;2023-07-22T13:00:53;98240.03;;;25.00;43.33
64078;BME280;51039;49.696;10.808;2023-07-22T13:03:18;98241.38;;;25.95;40.83
64078;BME280;51039;49.696;10.808;2023-07-22T13:05:43;98220.53;;;26.80;39.38